Nearby METAR Reports

 

KMGE - Dobbins Afb/Marietta, Ga, USA
Distance from station: ENE 10mi, 17km
Updated: Mon, 23-Oct-2017 11:12am EDT
Light rain, Mist, Overcast
Light rain, Mist, Overcast
 Wind from W
Wind: W 10 mph , 17 km/h
Temperature: 63°F , 17°C
Dew Point: 61°F , 16°C
Humidity: 94%
Barometer: 29.88 inHg , 1011.9 hPa
Summary: Light rain, Mist
Clouds: Overcast
Visibility: 5 miles , 8 km
Cloud details: Mostly cloudy 800 ft
Mostly cloudy 3000 ft
Overcast 8000 ft
2017/10/23 15:12 KMGE 231512Z 28009KT 5SM -RA BR BKN008 BKN030 OVC080 17/16 A2988 RMK AO2A SLP113 $
KFTY - Fulton, Ga, USA
Distance from station: ESE 11mi, 18km
Updated: Mon, 23-Oct-2017 10:53am EDT
Heavy rain, Mist, Overcast
Heavy rain, Mist, Overcast
 Wind from varies
Wind: varies 5 mph , 7 km/h, Gust: 21 mph , 33 km/h
Temperature: 63°F , 17°C
Dew Point: 63°F , 17°C
Humidity: 100%
Barometer: 29.89 inHg , 1012.2 hPa
Summary: Heavy rain, Mist
Clouds: Overcast
Visibility: 2 miles , 3 km
Cloud details: Mostly cloudy 700 ft
Overcast 2000 ft
2017/10/23 14:53 KFTY 231453Z VRB04G18KT 2SM +RA BR BKN007 OVC020 17/17 A2989 RMK AO2 RAB1355 SLP115 P0092 60102 T01720172 53005
 
KRYY - Marietta Mccolum, Ga, USA
Distance from station: NNE 12mi, 19km
Updated: Mon, 23-Oct-2017 11:08am EDT
Light rain, Mist, Overcast
Light rain, Mist, Overcast
 Wind from W
Wind: W 10 mph , 17 km/h
Temperature: 63°F , 17°C
Dew Point: 61°F , 16°C
Humidity: 94%
Barometer: 29.90 inHg , 1012.5 hPa
Summary: Light rain, Mist
Clouds: Overcast
Visibility: 3 miles , 5 km
Cloud details: Mostly cloudy 800 ft
Mostly cloudy 2100 ft
Overcast 8000 ft
2017/10/23 15:08 KRYY 231508Z 27009KT 3SM -RA BR BKN008 BKN021 OVC080 17/16 A2990 RMK AO2 CIG 005V010 P0007
KPUJ - Paulding, Ga, USA
Distance from station: WNW 15mi, 24km
Updated: Mon, 23-Oct-2017 11:15am EDT
Overcast
Overcast
 Wind from calm
Wind: Calm
Temperature: 64°F , 18°C
Barometer: 29.90 inHg , 1012.5 hPa
Clouds: Overcast
Visibility: 10 miles , 16 km
Cloud details: Overcast 800 ft
2017/10/23 15:15 KPUJ 231515Z AUTO 00000KT 10SM OVC008 18/ A2990 RMK AO2
 
KATL - Atlanta, Ga, USA
Distance from station: SE 21mi, 33km
Updated: Mon, 23-Oct-2017 11:10am EDT
Light rain, Mist, Overcast
Light rain, Mist, Overcast
 Wind from NW
Wind: NW 14 mph , 22 km/h
Temperature: 64°F , 18°C
Dew Point: 64°F , 18°C
Humidity: 100%
Barometer: 29.89 inHg , 1012.2 hPa
Summary: Light rain, Mist
Clouds: Overcast
Visibility: 6 miles , 10 km
Cloud details: Partly cloudy 700 ft
Mostly cloudy 1600 ft
Overcast 3000 ft
2017/10/23 15:10 KATL 231510Z 31012KT 6SM -RA BR SCT007 BKN016 OVC030 18/18 A2989 RMK AO2 WSHFT 1439 P0021 T01780178
KVPC - Cartersville, Ga, USA
Distance from station: NNW 21mi, 34km
Updated: Mon, 23-Oct-2017 10:53am EDT
Light rain, Overcast
Light rain, Overcast
 Wind from varies
Wind: varies 5 mph , 7 km/h
Temperature: 63°F , 17°C
Dew Point: 63°F , 17°C
Humidity: 100%
Barometer: 29.91 inHg , 1012.9 hPa
Summary: Light rain
Clouds: Overcast
Visibility: 10 miles , 16 km
Cloud details: Few Clouds 800 ft
Overcast 3500 ft
2017/10/23 14:53 KVPC 231453Z AUTO VRB04KT 10SM -RA FEW008 OVC035 17/17 A2991 RMK AO2 SLP117 P0020 60130 T01670167 53009
 
KPDK - Peachtree/Dekalb, Ga, USA
Distance from station: E 22mi, 36km
Updated: Mon, 23-Oct-2017 11:04am EDT
Heavy rain, Mist, Overcast
Heavy rain, Mist, Overcast
 Wind from WNW
Wind: WNW 14 mph , 22 km/h, Gust: 24 mph , 39 km/h
Temperature: 63°F , 17°C
Dew Point: 61°F , 16°C
Humidity: 94%
Barometer: 29.89 inHg , 1012.2 hPa
Summary: Heavy rain, Mist
Clouds: Overcast
Visibility: 1 mile , 2 km
Cloud details: Mostly cloudy 300 ft
Mostly cloudy 1600 ft
Overcast 4000 ft
2017/10/23 15:04 KPDK 231504Z 29012G21KT 1SM +RA BR BKN003 BKN016 OVC040 17/16 A2989 RMK AO2 PK WND 27026/1454 WSHFT 1450 PRESRR P0033 T01720161
KCTJ - Carrollton/Gray, Ga, USA
Distance from station: WSW 31mi, 50km
Updated: Mon, 23-Oct-2017 10:55am EDT
Overcast
Overcast
 Wind from WNW
Wind: WNW 7 mph , 11 km/h
Temperature: 63°F , 17°C
Dew Point: 61°F , 16°C
Humidity: 94%
Barometer: 29.94 inHg , 1013.9 hPa
Clouds: Overcast
Visibility: 10 miles , 16 km
Cloud details: Overcast 1200 ft
2017/10/23 14:55 KCTJ 231455Z AUTO 30006KT 10SM OVC012 17/16 A2994 RMK AO2 T01720156
 
KCNI - Canton/Cherokee, Ga, USA
Distance from station: NNE 35mi, 56km
Updated: Mon, 23-Oct-2017 11:15am EDT
Heavy rain, Overcast
Heavy rain, Overcast
 Wind from calm
Wind: Calm
Temperature: 63°F , 17°C
Dew Point: 63°F , 17°C
Humidity: 100%
Barometer: 29.91 inHg , 1012.9 hPa
Summary: Heavy rain
Clouds: Overcast
Visibility: 4 miles , 6 km
Cloud details: Partly cloudy 1600 ft
Mostly cloudy 2200 ft
Overcast 3200 ft
2017/10/23 15:15 KCNI 231515Z AUTO 00000KT 4SM +RA SCT016 BKN022 OVC032 17/17 A2991 RMK AO2
KFFC - Peachtree City, Ga, USA
Distance from station: S 36mi, 58km
Updated: Mon, 23-Oct-2017 11:11am EDT
Light rain, Mist, Overcast
Light rain, Mist, Overcast
 Wind from WNW
Wind: WNW 9 mph , 15 km/h, Gust: 20 mph , 31 km/h
Temperature: 64°F , 18°C
Dew Point: 63°F , 17°C
Humidity: 94%
Barometer: 29.91 inHg , 1012.9 hPa
Summary: Light rain, Mist
Clouds: Overcast
Visibility: 3 miles , 5 km
Cloud details: Few Clouds 1000 ft
Mostly cloudy 1900 ft
Overcast 2400 ft
2017/10/23 15:11 KFFC 231511Z AUTO 29008G17KT 3SM -RA BR FEW010 BKN019 OVC024 18/17 A2991 RMK AO2 P0003 T01830172
 
KCCO - Newnan, Ga, USA
Distance from station: S 38mi, 61km
Updated: Mon, 23-Oct-2017 11:15am EDT
Overcast
Overcast
 Wind from WNW
Wind: WNW 7 mph , 11 km/h
Temperature: 66°F , 19°C
Dew Point: 66°F , 19°C
Humidity: 100%
Barometer: 29.92 inHg , 1013.2 hPa
Clouds: Overcast
Visibility: 10 miles , 16 km
Cloud details: Overcast 600 ft
2017/10/23 15:15 KCCO 231515Z AUTO 29006KT 10SM OVC006 19/19 A2992 RMK AO2 T01850185
KLZU - Lawrenceville, Ga, USA
Distance from station: ENE 42mi, 68km
Updated: Mon, 23-Oct-2017 10:56am EDT
Rain, Mist, Overcast
Rain, Mist, Overcast
 Wind from SSE
Wind: SSE 10 mph , 17 km/h, Gust: 17 mph , 28 km/h
Temperature: 70°F , 21°C
Dew Point: 66°F , 19°C
Humidity: 88%
Barometer: 29.91 inHg , 1012.9 hPa
Summary: Rain, Mist
Clouds: Overcast
Visibility: 2 miles , 3 km
Cloud details: Overcast 300 ft
2017/10/23 14:56 KLZU 231456Z 15009G15KT 2SM RA BR OVC003 21/19 A2991 RMK AO2 SLP120 P0014 60026 T02060194 56006 $
 
KRMG - Rome, Ga, USA
Distance from station: NW 44mi, 70km
Updated: Mon, 23-Oct-2017 11:07am EDT
Few Clouds
Few Clouds
 Wind from varies
Wind: varies 5 mph , 7 km/h
Temperature: 64°F , 18°C
Dew Point: 64°F , 18°C
Humidity: 100%
Barometer: 29.88 inHg , 1011.9 hPa
Clouds: Few Clouds
Visibility: 10 miles , 16 km
Cloud details: Few Clouds 600 ft
2017/10/23 15:07 KRMG 231507Z AUTO VRB04KT 10SM FEW006 18/18 A2988 RMK AO2 T01830183
K6A2 - Griffin-Spalding, Ga, USA
Distance from station: SSE 49mi, 80km
Updated: Mon, 23-Oct-2017 11:15am EDT
Overcast
Overcast
 Wind from WSW
Wind: WSW 13 mph , 20 km/h, Gust: 24 mph , 39 km/h
Temperature: 70°F , 21°C
Dew Point: 70°F , 21°C
Humidity: 100%
Barometer: 29.89 inHg , 1012.2 hPa
Clouds: Overcast
Visibility: 1/2 mile , 2 km
Cloud details: Overcast 700 ft
2017/10/23 15:15 K6A2 231515Z AUTO 24011G21KT 210V270 1/2SM OVC007 21/21 A2989 RMK AO2 LTG DSNT E